This is the latest recevied weather packets stored in our database for station/object W0DP. If no packets are shown the sender has not sent any weather packets the latest 10 day(s).
| Time | Temp. | Humidity | Pressure | Rain* | Wind** | Luminosity | Snow |
|---|---|---|---|---|---|---|---|
| 1777433416 | 10° C | 71% | 1019.4 hPa | 0 mm | - | - | - |
| 1777432836 | 10° C | 71% | 1019.4 hPa | 0 mm | - | - | - |
| 1777432216 | 10° C | 73% | 1019.5 hPa | 0 mm | - | - | - |
| 1777427416 | 11.67° C | 68% | 1018.7 hPa | 0 mm | - | - | - |
| 1777424416 | 12.78° C | 67% | 1018.2 hPa | 0 mm | - | - | - |
| 1777414815 | 13.89° C | 57% | 1017.7 hPa | 0 mm | - | - | - |
| 1777413035 | 13.89° C | 57% | 1017.4 hPa | 0 mm | - | - | - |
| 1777408857 | 14.44° C | 53% | 1018.1 hPa | 0 mm | - | - | - |
| 1777401017 | 12.78° C | 61% | 1018.8 hPa | 0 mm | - | - | - |
| 1777399817 | 12.78° C | 63% | 1019.1 hPa | 0 mm | - | - | - |
| 1777399217 | 12.78° C | 63% | 1019.1 hPa | 0 mm | - | - | - |
| 1777393216 | 11.11° C | 70% | 1019.9 hPa | 0 mm | - | - | - |
| 1777392016 | 11.11° C | 71% | 1019.5 hPa | 0 mm | - | - | - |
| 1777387216 | 9.44° C | 76% | 1018.8 hPa | 0 mm | - | - | - |
| 1777386616 | 10° C | 74% | 1018.5 hPa | 0 mm | - | - | - |
| 1777384816 | 12.78° C | 61% | 1017.6 hPa | 0 mm | - | - | - |
| 1777382436 | 12.22° C | 60% | 1018.2 hPa | 0 mm | - | - | - |
| 1777380016 | 10° C | 67% | 1017.8 hPa | 0 mm | - | - | - |
| 1777379416 | 9.44° C | 71% | 1017.6 hPa | 0 mm | - | - | - |
| 1777375816 | 5.56° C | 86% | 1017.3 hPa | 0 mm | - | - | - |
| 1777374616 | 5.56° C | 85% | 1016.9 hPa | 0 mm | - | - | - |
| 1777366217 | 8.33° C | 83% | 1015.1 hPa | 0 mm | - | - | - |
| 1777361417 | 8.89° C | 84% | 1014.6 hPa | 0 mm | - | - | - |
| 1777359017 | 8.89° C | 84% | 1014.2 hPa | 0 mm | - | - | - |
| 1777350617 | 9.44° C | 86% | 1011.9 hPa | 0 mm | - | - | - |
* Rain latest hour (hover to see other rain measurements)
** Current wind speed in m/s (hover to see current wind gust speed)